sensor_id;sensor_type;location;lat;lon;timestamp;P1;durP1;ratioP1;P2;durP2;ratioP2
63943;SDS011;50121;51.218;7.664;2023-11-25T00:00:04;6.82;;;4.30;;
63943;SDS011;50121;51.218;7.664;2023-11-25T00:02:37;4.70;;;4.30;;
63943;SDS011;50121;51.218;7.664;2023-11-25T00:05:05;4.85;;;4.35;;
63943;SDS011;50121;51.218;7.664;2023-11-25T00:07:33;10.45;;;4.63;;
63943;SDS011;50121;51.218;7.664;2023-11-25T00:10:01;4.40;;;4.10;;
63943;SDS011;50121;51.218;7.664;2023-11-25T00:12:31;6.10;;;4.20;;
63943;SDS011;50121;51.218;7.664;2023-11-25T00:15:00;4.78;;;4.35;;
63943;SDS011;50121;51.218;7.664;2023-11-25T00:17:29;4.95;;;3.97;;
63943;SDS011;50121;51.218;7.664;2023-11-25T00:19:58;6.10;;;4.13;;
63943;SDS011;50121;51.218;7.664;2023-11-25T00:22:25;4.30;;;3.90;;
63943;SDS011;50121;51.218;7.664;2023-11-25T00:24:53;5.18;;;4.70;;
63943;SDS011;50121;51.218;7.664;2023-11-25T00:27:21;5.20;;;4.43;;
63943;SDS011;50121;51.218;7.664;2023-11-25T00:29:49;5.32;;;4.22;;
63943;SDS011;50121;51.218;7.664;2023-11-25T00:32:17;10.13;;;4.60;;
63943;SDS011;50121;51.218;7.664;2023-11-25T00:34:45;8.45;;;4.50;;
63943;SDS011;50121;51.218;7.664;2023-11-25T00:37:13;7.63;;;4.70;;
63943;SDS011;50121;51.218;7.664;2023-11-25T00:39:41;6.53;;;4.80;;
63943;SDS011;50121;51.218;7.664;2023-11-25T00:42:08;5.68;;;5.10;;
63943;SDS011;50121;51.218;7.664;2023-11-25T00:44:37;5.20;;;4.80;;
63943;SDS011;50121;51.218;7.664;2023-11-25T00:47:04;6.10;;;5.00;;
63943;SDS011;50121;51.218;7.664;2023-11-25T00:49:38;6.80;;;5.30;;
63943;SDS011;50121;51.218;7.664;2023-11-25T00:52:07;5.47;;;4.97;;
63943;SDS011;50121;51.218;7.664;2023-11-25T00:54:35;7.15;;;5.50;;
63943;SDS011;50121;51.218;7.664;2023-11-25T00:57:02;7.53;;;4.80;;
63943;SDS011;50121;51.218;7.664;2023-11-25T00:59:30;9.90;;;5.60;;
63943;SDS011;50121;51.218;7.664;2023-11-25T01:01:58;5.75;;;5.25;;
63943;SDS011;50121;51.218;7.664;2023-11-25T01:04:26;8.73;;;5.20;;
63943;SDS011;50121;51.218;7.664;2023-11-25T01:06:54;6.30;;;5.35;;
63943;SDS011;50121;51.218;7.664;2023-11-25T01:09:21;10.23;;;5.40;;
63943;SDS011;50121;51.218;7.664;2023-11-25T01:11:52;5.95;;;5.35;;
63943;SDS011;50121;51.218;7.664;2023-11-25T01:14:21;8.80;;;5.63;;
63943;SDS011;50121;51.218;7.664;2023-11-25T01:16:49;5.65;;;4.88;;
63943;SDS011;50121;51.218;7.664;2023-11-25T01:19:17;5.40;;;4.68;;
63943;SDS011;50121;51.218;7.664;2023-11-25T01:21:45;8.10;;;5.65;;
63943;SDS011;50121;51.218;7.664;2023-11-25T01:24:13;7.68;;;4.95;;
63943;SDS011;50121;51.218;7.664;2023-11-25T01:26:41;8.45;;;5.10;;
63943;SDS011;50121;51.218;7.664;2023-11-25T01:29:09;5.32;;;4.40;;
63943;SDS011;50121;51.218;7.664;2023-11-25T01:31:36;6.97;;;4.60;;
63943;SDS011;50121;51.218;7.664;2023-11-25T01:34:04;8.85;;;4.80;;
63943;SDS011;50121;51.218;7.664;2023-11-25T01:36:33;5.68;;;4.60;;
63943;SDS011;50121;51.218;7.664;2023-11-25T01:39:00;5.85;;;4.57;;
63943;SDS011;50121;51.218;7.664;2023-11-25T01:41:29;8.18;;;4.88;;
63943;SDS011;50121;51.218;7.664;2023-11-25T01:43:57;5.93;;;4.82;;
63943;SDS011;50121;51.218;7.664;2023-11-25T01:46:36;6.43;;;4.60;;
63943;SDS011;50121;51.218;7.664;2023-11-25T01:49:10;5.00;;;4.50;;
63943;SDS011;50121;51.218;7.664;2023-11-25T01:51:40;5.38;;;4.82;;
63943;SDS011;50121;51.218;7.664;2023-11-25T01:54:10;4.93;;;4.43;;
63943;SDS011;50121;51.218;7.664;2023-11-25T01:56:41;8.38;;;5.00;;
63943;SDS011;50121;51.218;7.664;2023-11-25T01:59:09;5.50;;;4.40;;
63943;SDS011;50121;51.218;7.664;2023-11-25T02:01:38;5.50;;;4.47;;
63943;SDS011;50121;51.218;7.664;2023-11-25T02:04:06;5.25;;;4.60;;
63943;SDS011;50121;51.218;7.664;2023-11-25T02:06:34;4.90;;;4.30;;
63943;SDS011;50121;51.218;7.664;2023-11-25T02:09:02;5.53;;;4.32;;
63943;SDS011;50121;51.218;7.664;2023-11-25T02:11:30;6.78;;;4.68;;
63943;SDS011;50121;51.218;7.664;2023-11-25T02:13:58;5.25;;;4.38;;
63943;SDS011;50121;51.218;7.664;2023-11-25T02:16:25;5.28;;;4.68;;
63943;SDS011;50121;51.218;7.664;2023-11-25T02:18:53;7.80;;;5.10;;
63943;SDS011;50121;51.218;7.664;2023-11-25T02:21:21;5.53;;;5.13;;
63943;SDS011;50121;51.218;7.664;2023-11-25T02:23:49;6.00;;;5.32;;
63943;SDS011;50121;51.218;7.664;2023-11-25T02:26:17;7.93;;;4.78;;
63943;SDS011;50121;51.218;7.664;2023-11-25T02:28:47;8.48;;;4.40;;
63943;SDS011;50121;51.218;7.664;2023-11-25T02:31:16;6.32;;;4.82;;
63943;SDS011;50121;51.218;7.664;2023-11-25T02:33:44;4.80;;;4.22;;
63943;SDS011;50121;51.218;7.664;2023-11-25T02:36:11;6.53;;;4.50;;
63943;SDS011;50121;51.218;7.664;2023-11-25T02:38:39;8.98;;;4.53;;
63943;SDS011;50121;51.218;7.664;2023-11-25T02:41:07;4.78;;;4.38;;
63943;SDS011;50121;51.218;7.664;2023-11-25T02:43:37;4.47;;;4.07;;
63943;SDS011;50121;51.218;7.664;2023-11-25T02:46:05;11.40;;;7.07;;
63943;SDS011;50121;51.218;7.664;2023-11-25T02:48:32;7.57;;;6.30;;
63943;SDS011;50121;51.218;7.664;2023-11-25T02:51:02;10.35;;;6.68;;
63943;SDS011;50121;51.218;7.664;2023-11-25T02:53:29;15.90;;;9.77;;
63943;SDS011;50121;51.218;7.664;2023-11-25T02:55:57;11.30;;;7.88;;
63943;SDS011;50121;51.218;7.664;2023-11-25T02:58:25;9.77;;;6.65;;
63943;SDS011;50121;51.218;7.664;2023-11-25T03:00:53;10.07;;;6.30;;
63943;SDS011;50121;51.218;7.664;2023-11-25T03:03:28;9.02;;;5.18;;
63943;SDS011;50121;51.218;7.664;2023-11-25T03:05:56;11.57;;;5.80;;
63943;SDS011;50121;51.218;7.664;2023-11-25T03:08:24;7.35;;;4.97;;
63943;SDS011;50121;51.218;7.664;2023-11-25T03:10:54;9.07;;;6.70;;
63943;SDS011;50121;51.218;7.664;2023-11-25T03:13:22;7.32;;;5.68;;
63943;SDS011;50121;51.218;7.664;2023-11-25T03:15:52;12.40;;;5.90;;
63943;SDS011;50121;51.218;7.664;2023-11-25T03:18:21;9.07;;;5.53;;
63943;SDS011;50121;51.218;7.664;2023-11-25T03:20:49;12.50;;;6.25;;
63943;SDS011;50121;51.218;7.664;2023-11-25T03:23:16;9.70;;;6.32;;
63943;SDS011;50121;51.218;7.664;2023-11-25T03:25:44;9.40;;;5.65;;
63943;SDS011;50121;51.218;7.664;2023-11-25T03:28:12;9.30;;;7.47;;
63943;SDS011;50121;51.218;7.664;2023-11-25T03:30:40;9.63;;;7.18;;
63943;SDS011;50121;51.218;7.664;2023-11-25T03:33:08;12.43;;;7.50;;
63943;SDS011;50121;51.218;7.664;2023-11-25T03:35:36;9.93;;;6.97;;
63943;SDS011;50121;51.218;7.664;2023-11-25T03:38:04;13.88;;;7.90;;
63943;SDS011;50121;51.218;7.664;2023-11-25T03:40:32;12.90;;;7.75;;
63943;SDS011;50121;51.218;7.664;2023-11-25T03:43:00;12.25;;;6.90;;
63943;SDS011;50121;51.218;7.664;2023-11-25T03:45:27;16.42;;;7.75;;
63943;SDS011;50121;51.218;7.664;2023-11-25T03:47:55;12.77;;;8.10;;
63943;SDS011;50121;51.218;7.664;2023-11-25T03:50:23;15.52;;;7.57;;
63943;SDS011;50121;51.218;7.664;2023-11-25T03:52:50;14.10;;;7.93;;
63943;SDS011;50121;51.218;7.664;2023-11-25T03:55:18;19.27;;;8.63;;
63943;SDS011;50121;51.218;7.664;2023-11-25T03:57:46;23.05;;;8.82;;
63943;SDS011;50121;51.218;7.664;2023-11-25T04:00:14;20.15;;;9.50;;
63943;SDS011;50121;51.218;7.664;2023-11-25T04:02:42;18.73;;;9.73;;
63943;SDS011;50121;51.218;7.664;2023-11-25T04:05:11;17.17;;;9.45;;
63943;SDS011;50121;51.218;7.664;2023-11-25T04:07:38;19.55;;;9.68;;
63943;SDS011;50121;51.218;7.664;2023-11-25T04:10:06;18.40;;;9.82;;
63943;SDS011;50121;51.218;7.664;2023-11-25T04:12:45;15.48;;;9.43;;
63943;SDS011;50121;51.218;7.664;2023-11-25T04:15:15;22.10;;;10.25;;
63943;SDS011;50121;51.218;7.664;2023-11-25T04:17:45;20.75;;;9.35;;
63943;SDS011;50121;51.218;7.664;2023-11-25T04:20:14;25.27;;;10.85;;
63943;SDS011;50121;51.218;7.664;2023-11-25T04:22:50;24.48;;;10.60;;
63943;SDS011;50121;51.218;7.664;2023-11-25T04:25:18;21.77;;;10.35;;
63943;SDS011;50121;51.218;7.664;2023-11-25T04:27:47;22.38;;;10.38;;
63943;SDS011;50121;51.218;7.664;2023-11-25T04:30:16;22.40;;;9.65;;
63943;SDS011;50121;51.218;7.664;2023-11-25T04:32:45;19.30;;;10.07;;
63943;SDS011;50121;51.218;7.664;2023-11-25T04:35:13;20.90;;;9.32;;
63943;SDS011;50121;51.218;7.664;2023-11-25T04:37:42;22.75;;;10.20;;
63943;SDS011;50121;51.218;7.664;2023-11-25T04:40:12;20.27;;;8.90;;
63943;SDS011;50121;51.218;7.664;2023-11-25T04:42:40;22.15;;;9.45;;
63943;SDS011;50121;51.218;7.664;2023-11-25T04:45:09;18.27;;;9.68;;
63943;SDS011;50121;51.218;7.664;2023-11-25T04:47:43;18.20;;;9.27;;
63943;SDS011;50121;51.218;7.664;2023-11-25T04:50:12;21.73;;;10.00;;
63943;SDS011;50121;51.218;7.664;2023-11-25T04:52:40;18.77;;;10.25;;
63943;SDS011;50121;51.218;7.664;2023-11-25T04:55:09;21.42;;;10.25;;
63943;SDS011;50121;51.218;7.664;2023-11-25T04:57:37;17.95;;;9.52;;
63943;SDS011;50121;51.218;7.664;2023-11-25T05:00:05;20.38;;;10.32;;
63943;SDS011;50121;51.218;7.664;2023-11-25T05:02:37;19.38;;;10.45;;
63943;SDS011;50121;51.218;7.664;2023-11-25T05:05:05;21.23;;;10.25;;
63943;SDS011;50121;51.218;7.664;2023-11-25T05:07:33;22.70;;;9.75;;
63943;SDS011;50121;51.218;7.664;2023-11-25T05:10:01;25.77;;;10.18;;
63943;SDS011;50121;51.218;7.664;2023-11-25T05:12:32;20.85;;;9.43;;
63943;SDS011;50121;51.218;7.664;2023-11-25T05:14:59;21.08;;;10.43;;
63943;SDS011;50121;51.218;7.664;2023-11-25T05:17:29;22.50;;;9.45;;
63943;SDS011;50121;51.218;7.664;2023-11-25T05:19:56;16.48;;;9.07;;
63943;SDS011;50121;51.218;7.664;2023-11-25T05:22:24;19.67;;;9.38;;
63943;SDS011;50121;51.218;7.664;2023-11-25T05:24:55;22.38;;;9.35;;
63943;SDS011;50121;51.218;7.664;2023-11-25T05:27:22;21.60;;;9.35;;
63943;SDS011;50121;51.218;7.664;2023-11-25T05:29:50;15.80;;;9.23;;
63943;SDS011;50121;51.218;7.664;2023-11-25T05:32:18;20.00;;;9.50;;
63943;SDS011;50121;51.218;7.664;2023-11-25T05:34:46;21.00;;;9.73;;
63943;SDS011;50121;51.218;7.664;2023-11-25T05:37:13;21.30;;;9.85;;
63943;SDS011;50121;51.218;7.664;2023-11-25T05:39:41;19.38;;;9.60;;
63943;SDS011;50121;51.218;7.664;2023-11-25T05:42:10;17.27;;;9.60;;
63943;SDS011;50121;51.218;7.664;2023-11-25T05:44:38;19.10;;;9.27;;
63943;SDS011;50121;51.218;7.664;2023-11-25T05:47:06;21.25;;;9.55;;
63943;SDS011;50121;51.218;7.664;2023-11-25T05:49:34;18.08;;;9.50;;
63943;SDS011;50121;51.218;7.664;2023-11-25T05:52:02;15.20;;;9.00;;
63943;SDS011;50121;51.218;7.664;2023-11-25T05:54:30;17.95;;;8.63;;
63943;SDS011;50121;51.218;7.664;2023-11-25T05:56:57;21.27;;;9.55;;
63943;SDS011;50121;51.218;7.664;2023-11-25T05:59:25;23.92;;;9.27;;
63943;SDS011;50121;51.218;7.664;2023-11-25T06:01:53;13.85;;;8.52;;
63943;SDS011;50121;51.218;7.664;2023-11-25T06:04:20;14.57;;;8.77;;
63943;SDS011;50121;51.218;7.664;2023-11-25T06:06:48;16.13;;;8.95;;
63943;SDS011;50121;51.218;7.664;2023-11-25T06:09:16;19.27;;;9.48;;
63943;SDS011;50121;51.218;7.664;2023-11-25T06:11:44;21.85;;;12.15;;
63943;SDS011;50121;51.218;7.664;2023-11-25T06:14:12;20.02;;;8.68;;
63943;SDS011;50121;51.218;7.664;2023-11-25T06:16:41;18.17;;;10.00;;
63943;SDS011;50121;51.218;7.664;2023-11-25T06:19:09;18.70;;;9.30;;
63943;SDS011;50121;51.218;7.664;2023-11-25T06:21:38;17.83;;;9.38;;
63943;SDS011;50121;51.218;7.664;2023-11-25T06:24:07;21.10;;;9.63;;
63943;SDS011;50121;51.218;7.664;2023-11-25T06:26:34;19.65;;;9.82;;
63943;SDS011;50121;51.218;7.664;2023-11-25T06:29:03;19.80;;;9.60;;
63943;SDS011;50121;51.218;7.664;2023-11-25T06:31:31;18.88;;;9.85;;
63943;SDS011;50121;51.218;7.664;2023-11-25T06:34:01;19.55;;;10.20;;
63943;SDS011;50121;51.218;7.664;2023-11-25T06:36:30;22.63;;;9.82;;
63943;SDS011;50121;51.218;7.664;2023-11-25T06:38:57;18.52;;;10.38;;
63943;SDS011;50121;51.218;7.664;2023-11-25T06:41:25;20.77;;;9.65;;
63943;SDS011;50121;51.218;7.664;2023-11-25T06:43:53;19.60;;;9.90;;
63943;SDS011;50121;51.218;7.664;2023-11-25T06:46:21;18.50;;;9.80;;
63943;SDS011;50121;51.218;7.664;2023-11-25T06:48:49;19.83;;;9.70;;
63943;SDS011;50121;51.218;7.664;2023-11-25T06:51:19;26.35;;;10.57;;
63943;SDS011;50121;51.218;7.664;2023-11-25T06:53:46;20.48;;;9.93;;
63943;SDS011;50121;51.218;7.664;2023-11-25T06:56:14;13.55;;;9.95;;
63943;SDS011;50121;51.218;7.664;2023-11-25T06:58:45;17.50;;;10.02;;
63943;SDS011;50121;51.218;7.664;2023-11-25T07:01:19;16.77;;;10.32;;
63943;SDS011;50121;51.218;7.664;2023-11-25T07:03:46;18.25;;;10.07;;
63943;SDS011;50121;51.218;7.664;2023-11-25T07:06:14;16.75;;;10.43;;
63943;SDS011;50121;51.218;7.664;2023-11-25T07:08:45;19.83;;;9.82;;
63943;SDS011;50121;51.218;7.664;2023-11-25T07:11:13;18.05;;;10.10;;
63943;SDS011;50121;51.218;7.664;2023-11-25T07:13:41;19.13;;;10.32;;
63943;SDS011;50121;51.218;7.664;2023-11-25T07:16:11;17.92;;;9.80;;
63943;SDS011;50121;51.218;7.664;2023-11-25T07:18:39;16.08;;;9.82;;
63943;SDS011;50121;51.218;7.664;2023-11-25T07:21:09;16.58;;;9.35;;
63943;SDS011;50121;51.218;7.664;2023-11-25T07:23:40;14.88;;;9.98;;
63943;SDS011;50121;51.218;7.664;2023-11-25T07:26:09;13.80;;;9.38;;
63943;SDS011;50121;51.218;7.664;2023-11-25T07:28:39;13.00;;;8.80;;
63943;SDS011;50121;51.218;7.664;2023-11-25T07:31:07;14.35;;;8.50;;
63943;SDS011;50121;51.218;7.664;2023-11-25T07:33:36;14.10;;;8.75;;
63943;SDS011;50121;51.218;7.664;2023-11-25T07:36:04;13.73;;;9.40;;
63943;SDS011;50121;51.218;7.664;2023-11-25T07:38:33;14.25;;;9.13;;
63943;SDS011;50121;51.218;7.664;2023-11-25T07:41:01;15.30;;;10.00;;
63943;SDS011;50121;51.218;7.664;2023-11-25T07:43:28;15.68;;;10.48;;
63943;SDS011;50121;51.218;7.664;2023-11-25T07:45:57;13.02;;;10.02;;
63943;SDS011;50121;51.218;7.664;2023-11-25T07:48:25;9.07;;;8.15;;
63943;SDS011;50121;51.218;7.664;2023-11-25T07:50:53;8.40;;;7.45;;
63943;SDS011;50121;51.218;7.664;2023-11-25T07:53:21;12.90;;;8.75;;
63943;SDS011;50121;51.218;7.664;2023-11-25T07:55:49;15.02;;;8.60;;
63943;SDS011;50121;51.218;7.664;2023-11-25T07:58:17;11.60;;;7.40;;
63943;SDS011;50121;51.218;7.664;2023-11-25T08:00:46;10.90;;;8.82;;
63943;SDS011;50121;51.218;7.664;2023-11-25T08:03:13;10.57;;;7.82;;
63943;SDS011;50121;51.218;7.664;2023-11-25T08:05:41;9.55;;;7.40;;
63943;SDS011;50121;51.218;7.664;2023-11-25T08:08:09;12.45;;;7.93;;
63943;SDS011;50121;51.218;7.664;2023-11-25T08:10:38;13.85;;;8.02;;
63943;SDS011;50121;51.218;7.664;2023-11-25T08:13:08;11.52;;;8.45;;
63943;SDS011;50121;51.218;7.664;2023-11-25T08:15:37;12.73;;;8.90;;
63943;SDS011;50121;51.218;7.664;2023-11-25T08:18:05;15.57;;;8.48;;
63943;SDS011;50121;51.218;7.664;2023-11-25T08:20:34;15.68;;;9.38;;
63943;SDS011;50121;51.218;7.664;2023-11-25T08:23:02;18.30;;;9.85;;
63943;SDS011;50121;51.218;7.664;2023-11-25T08:25:31;18.08;;;11.27;;
63943;SDS011;50121;51.218;7.664;2023-11-25T08:28:04;16.80;;;10.32;;
63943;SDS011;50121;51.218;7.664;2023-11-25T08:30:32;18.70;;;9.90;;
63943;SDS011;50121;51.218;7.664;2023-11-25T08:32:59;16.30;;;8.38;;
63943;SDS011;50121;51.218;7.664;2023-11-25T08:35:27;22.73;;;10.32;;
63943;SDS011;50121;51.218;7.664;2023-11-25T08:37:55;22.90;;;10.63;;
63943;SDS011;50121;51.218;7.664;2023-11-25T08:40:23;23.65;;;11.00;;
63943;SDS011;50121;51.218;7.664;2023-11-25T08:42:51;22.20;;;11.55;;
63943;SDS011;50121;51.218;7.664;2023-11-25T08:45:19;26.88;;;11.07;;
63943;SDS011;50121;51.218;7.664;2023-11-25T08:47:46;23.83;;;11.45;;
63943;SDS011;50121;51.218;7.664;2023-11-25T08:50:15;25.35;;;11.18;;
63943;SDS011;50121;51.218;7.664;2023-11-25T08:52:43;27.10;;;11.75;;
63943;SDS011;50121;51.218;7.664;2023-11-25T08:55:12;23.00;;;11.85;;
63943;SDS011;50121;51.218;7.664;2023-11-25T08:57:44;25.88;;;10.63;;
63943;SDS011;50121;51.218;7.664;2023-11-25T09:00:12;24.98;;;10.70;;
63943;SDS011;50121;51.218;7.664;2023-11-25T09:02:46;21.88;;;10.20;;
63943;SDS011;50121;51.218;7.664;2023-11-25T09:05:14;17.67;;;10.25;;
63943;SDS011;50121;51.218;7.664;2023-11-25T09:07:42;27.30;;;16.42;;
63943;SDS011;50121;51.218;7.664;2023-11-25T09:10:10;24.67;;;10.30;;
63943;SDS011;50121;51.218;7.664;2023-11-25T09:12:39;19.88;;;11.10;;
63943;SDS011;50121;51.218;7.664;2023-11-25T09:15:07;23.98;;;11.30;;
63943;SDS011;50121;51.218;7.664;2023-11-25T09:17:35;20.63;;;11.13;;
63943;SDS011;50121;51.218;7.664;2023-11-25T09:20:06;22.27;;;11.05;;
63943;SDS011;50121;51.218;7.664;2023-11-25T09:22:36;18.23;;;10.48;;
63943;SDS011;50121;51.218;7.664;2023-11-25T09:25:05;20.02;;;10.90;;
63943;SDS011;50121;51.218;7.664;2023-11-25T09:27:33;17.90;;;10.07;;
63943;SDS011;50121;51.218;7.664;2023-11-25T09:30:00;17.58;;;9.88;;
63943;SDS011;50121;51.218;7.664;2023-11-25T09:32:28;16.20;;;9.88;;
63943;SDS011;50121;51.218;7.664;2023-11-25T09:34:55;20.33;;;11.27;;
63943;SDS011;50121;51.218;7.664;2023-11-25T09:37:23;16.80;;;10.27;;
63943;SDS011;50121;51.218;7.664;2023-11-25T09:39:51;17.73;;;9.05;;
63943;SDS011;50121;51.218;7.664;2023-11-25T09:42:19;17.88;;;9.60;;
63943;SDS011;50121;51.218;7.664;2023-11-25T09:44:47;17.23;;;11.20;;
63943;SDS011;50121;51.218;7.664;2023-11-25T09:47:15;14.02;;;9.60;;
63943;SDS011;50121;51.218;7.664;2023-11-25T09:49:43;11.63;;;8.70;;
63943;SDS011;50121;51.218;7.664;2023-11-25T09:52:11;14.52;;;9.20;;
63943;SDS011;50121;51.218;7.664;2023-11-25T09:54:43;17.40;;;8.85;;
63943;SDS011;50121;51.218;7.664;2023-11-25T09:57:15;15.02;;;8.45;;
63943;SDS011;50121;51.218;7.664;2023-11-25T09:59:44;15.70;;;9.23;;
63943;SDS011;50121;51.218;7.664;2023-11-25T10:02:12;14.88;;;8.73;;
63943;SDS011;50121;51.218;7.664;2023-11-25T10:04:42;18.35;;;9.63;;
63943;SDS011;50121;51.218;7.664;2023-11-25T10:07:10;12.85;;;8.95;;
63943;SDS011;50121;51.218;7.664;2023-11-25T10:09:41;13.35;;;8.93;;
63943;SDS011;50121;51.218;7.664;2023-11-25T10:12:08;17.10;;;8.98;;
63943;SDS011;50121;51.218;7.664;2023-11-25T10:14:38;12.27;;;8.10;;
63943;SDS011;50121;51.218;7.664;2023-11-25T10:19:44;12.80;;;8.23;;
63943;SDS011;50121;51.218;7.664;2023-11-25T10:22:13;14.45;;;8.02;;
63943;SDS011;50121;51.218;7.664;2023-11-25T10:24:45;12.00;;;8.20;;
63943;SDS011;50121;51.218;7.664;2023-11-25T10:27:13;12.48;;;8.63;;
63943;SDS011;50121;51.218;7.664;2023-11-25T10:29:42;15.70;;;8.70;;
63943;SDS011;50121;51.218;7.664;2023-11-25T10:32:10;11.98;;;8.18;;
63943;SDS011;50121;51.218;7.664;2023-11-25T10:34:38;17.10;;;7.90;;
63943;SDS011;50121;51.218;7.664;2023-11-25T10:37:05;10.32;;;7.55;;
63943;SDS011;50121;51.218;7.664;2023-11-25T10:39:34;10.75;;;7.45;;
63943;SDS011;50121;51.218;7.664;2023-11-25T10:42:02;12.25;;;7.20;;
63943;SDS011;50121;51.218;7.664;2023-11-25T10:44:34;10.60;;;7.15;;
63943;SDS011;50121;51.218;7.664;2023-11-25T10:47:02;11.90;;;7.65;;
63943;SDS011;50121;51.218;7.664;2023-11-25T10:49:31;10.02;;;7.65;;
63943;SDS011;50121;51.218;7.664;2023-11-25T10:52:02;13.85;;;7.30;;
63943;SDS011;50121;51.218;7.664;2023-11-25T10:54:33;12.80;;;7.68;;
63943;SDS011;50121;51.218;7.664;2023-11-25T10:57:02;9.52;;;7.70;;
63943;SDS011;50121;51.218;7.664;2023-11-25T10:59:35;9.75;;;7.60;;
63943;SDS011;50121;51.218;7.664;2023-11-25T11:02:24;9.50;;;7.43;;
63943;SDS011;50121;51.218;7.664;2023-11-25T11:04:56;9.30;;;7.05;;
63943;SDS011;50121;51.218;7.664;2023-11-25T11:07:25;10.02;;;7.40;;
63943;SDS011;50121;51.218;7.664;2023-11-25T11:09:55;12.50;;;7.70;;
63943;SDS011;50121;51.218;7.664;2023-11-25T11:12:27;9.10;;;7.45;;
63943;SDS011;50121;51.218;7.664;2023-11-25T11:14:56;9.90;;;7.80;;
63943;SDS011;50121;51.218;7.664;2023-11-25T11:17:36;8.90;;;7.45;;
63943;SDS011;50121;51.218;7.664;2023-11-25T11:20:07;10.63;;;7.75;;
63943;SDS011;50121;51.218;7.664;2023-11-25T11:22:40;8.40;;;7.38;;
63943;SDS011;50121;51.218;7.664;2023-11-25T11:32:44;11.25;;;8.52;;
63943;SDS011;50121;51.218;7.664;2023-11-25T11:35:12;12.80;;;8.90;;
63943;SDS011;50121;51.218;7.664;2023-11-25T11:37:46;15.15;;;9.13;;
63943;SDS011;50121;51.218;7.664;2023-11-25T11:40:13;14.27;;;9.68;;
63943;SDS011;50121;51.218;7.664;2023-11-25T11:42:41;15.18;;;9.23;;
63943;SDS011;50121;51.218;7.664;2023-11-25T11:45:18;14.02;;;9.35;;
63943;SDS011;50121;51.218;7.664;2023-11-25T11:47:56;12.45;;;8.52;;
63943;SDS011;50121;51.218;7.664;2023-11-25T11:50:28;16.33;;;9.55;;
63943;SDS011;50121;51.218;7.664;2023-11-25T11:58:08;13.75;;;10.07;;
63943;SDS011;50121;51.218;7.664;2023-11-25T12:00:45;13.90;;;9.77;;
63943;SDS011;50121;51.218;7.664;2023-11-25T12:03:13;14.35;;;9.90;;
63943;SDS011;50121;51.218;7.664;2023-11-25T12:05:43;9.77;;;8.30;;
63943;SDS011;50121;51.218;7.664;2023-11-25T12:08:11;15.68;;;8.60;;
63943;SDS011;50121;51.218;7.664;2023-11-25T12:10:41;12.48;;;9.00;;
63943;SDS011;50121;51.218;7.664;2023-11-25T12:13:08;15.95;;;9.57;;
63943;SDS011;50121;51.218;7.664;2023-11-25T12:15:38;9.90;;;8.43;;
63943;SDS011;50121;51.218;7.664;2023-11-25T12:18:06;11.65;;;8.43;;
63943;SDS011;50121;51.218;7.664;2023-11-25T12:20:37;10.75;;;8.25;;
63943;SDS011;50121;51.218;7.664;2023-11-25T12:23:06;13.32;;;8.90;;
63943;SDS011;50121;51.218;7.664;2023-11-25T12:25:35;12.63;;;9.15;;
63943;SDS011;50121;51.218;7.664;2023-11-25T12:28:07;9.15;;;7.78;;
63943;SDS011;50121;51.218;7.664;2023-11-25T12:30:36;14.88;;;8.60;;
63943;SDS011;50121;51.218;7.664;2023-11-25T12:33:04;10.32;;;8.50;;
63943;SDS011;50121;51.218;7.664;2023-11-25T12:35:36;16.45;;;9.90;;
63943;SDS011;50121;51.218;7.664;2023-11-25T12:38:04;10.93;;;8.57;;
63943;SDS011;50121;51.218;7.664;2023-11-25T12:40:33;14.27;;;8.73;;
63943;SDS011;50121;51.218;7.664;2023-11-25T12:43:06;15.30;;;9.27;;
63943;SDS011;50121;51.218;7.664;2023-11-25T12:45:39;14.00;;;8.73;;
63943;SDS011;50121;51.218;7.664;2023-11-25T12:48:08;14.63;;;9.73;;
63943;SDS011;50121;51.218;7.664;2023-11-25T12:53:24;15.73;;;8.98;;
63943;SDS011;50121;51.218;7.664;2023-11-25T12:55:51;19.05;;;9.25;;
63943;SDS011;50121;51.218;7.664;2023-11-25T12:58:19;12.82;;;7.85;;
63943;SDS011;50121;51.218;7.664;2023-11-25T13:03:26;12.57;;;8.60;;
63943;SDS011;50121;51.218;7.664;2023-11-25T13:06:04;10.20;;;7.05;;
63943;SDS011;50121;51.218;7.664;2023-11-25T13:08:33;12.07;;;8.05;;
63943;SDS011;50121;51.218;7.664;2023-11-25T13:11:04;9.52;;;7.90;;
63943;SDS011;50121;51.218;7.664;2023-11-25T13:13:35;8.45;;;6.88;;
63943;SDS011;50121;51.218;7.664;2023-11-25T13:16:03;8.63;;;6.88;;
63943;SDS011;50121;51.218;7.664;2023-11-25T13:18:31;11.73;;;7.03;;
63943;SDS011;50121;51.218;7.664;2023-11-25T13:20:59;10.93;;;6.93;;
63943;SDS011;50121;51.218;7.664;2023-11-25T13:23:31;8.23;;;6.50;;
63943;SDS011;50121;51.218;7.664;2023-11-25T13:25:58;10.07;;;6.68;;
63943;SDS011;50121;51.218;7.664;2023-11-25T13:28:26;11.45;;;7.00;;
63943;SDS011;50121;51.218;7.664;2023-11-25T13:30:54;9.38;;;5.95;;
63943;SDS011;50121;51.218;7.664;2023-11-25T13:33:22;8.98;;;6.30;;
63943;SDS011;50121;51.218;7.664;2023-11-25T13:35:49;7.00;;;6.20;;
63943;SDS011;50121;51.218;7.664;2023-11-25T13:38:18;10.55;;;6.68;;
63943;SDS011;50121;51.218;7.664;2023-11-25T13:40:45;9.88;;;6.55;;
63943;SDS011;50121;51.218;7.664;2023-11-25T13:43:14;8.07;;;7.03;;
63943;SDS011;50121;51.218;7.664;2023-11-25T13:45:44;6.90;;;6.20;;
63943;SDS011;50121;51.218;7.664;2023-11-25T13:48:22;7.22;;;6.53;;
63943;SDS011;50121;51.218;7.664;2023-11-25T13:55:10;8.98;;;6.07;;
63943;SDS011;50121;51.218;7.664;2023-11-25T13:57:55;7.03;;;6.32;;
63943;SDS011;50121;51.218;7.664;2023-11-25T14:00:51;11.10;;;7.00;;
63943;SDS011;50121;51.218;7.664;2023-11-25T14:03:32;10.40;;;6.28;;
63943;SDS011;50121;51.218;7.664;2023-11-25T14:06:07;8.20;;;6.47;;
63943;SDS011;50121;51.218;7.664;2023-11-25T14:08:38;11.95;;;7.07;;
63943;SDS011;50121;51.218;7.664;2023-11-25T14:11:15;6.75;;;6.05;;
63943;SDS011;50121;51.218;7.664;2023-11-25T14:14:33;11.18;;;6.45;;
63943;SDS011;50121;51.218;7.664;2023-11-25T14:17:02;12.50;;;6.50;;
63943;SDS011;50121;51.218;7.664;2023-11-25T14:19:31;12.80;;;7.30;;
63943;SDS011;50121;51.218;7.664;2023-11-25T14:22:00;12.90;;;6.47;;
63943;SDS011;50121;51.218;7.664;2023-11-25T14:24:28;11.82;;;6.82;;
63943;SDS011;50121;51.218;7.664;2023-11-25T14:26:56;11.80;;;6.57;;
63943;SDS011;50121;51.218;7.664;2023-11-25T14:29:23;9.23;;;6.38;;
63943;SDS011;50121;51.218;7.664;2023-11-25T14:31:51;14.45;;;6.60;;
63943;SDS011;50121;51.218;7.664;2023-11-25T14:34:18;9.60;;;5.85;;
63943;SDS011;50121;51.218;7.664;2023-11-25T14:36:47;11.23;;;6.32;;
63943;SDS011;50121;51.218;7.664;2023-11-25T14:39:15;13.90;;;6.25;;
63943;SDS011;50121;51.218;7.664;2023-11-25T14:41:45;11.48;;;6.60;;
63943;SDS011;50121;51.218;7.664;2023-11-25T14:44:14;8.50;;;6.30;;
63943;SDS011;50121;51.218;7.664;2023-11-25T14:46:42;12.77;;;6.00;;
63943;SDS011;50121;51.218;7.664;2023-11-25T14:49:10;10.43;;;6.82;;
63943;SDS011;50121;51.218;7.664;2023-11-25T14:51:37;9.20;;;6.30;;
63943;SDS011;50121;51.218;7.664;2023-11-25T14:54:06;11.15;;;7.35;;
63943;SDS011;50121;51.218;7.664;2023-11-25T14:56:34;10.70;;;8.30;;
63943;SDS011;50121;51.218;7.664;2023-11-25T14:59:02;10.07;;;5.75;;
63943;SDS011;50121;51.218;7.664;2023-11-25T15:01:32;9.10;;;6.07;;
63943;SDS011;50121;51.218;7.664;2023-11-25T15:03:59;10.13;;;5.60;;
63943;SDS011;50121;51.218;7.664;2023-11-25T15:06:27;11.65;;;6.03;;
63943;SDS011;50121;51.218;7.664;2023-11-25T15:08:55;9.63;;;5.03;;
63943;SDS011;50121;51.218;7.664;2023-11-25T15:11:22;7.45;;;4.80;;